Terminal Aerodrome Forecast
Issued by NWS

Home | Current Version | Previous Version | Text Only | Print | Product List | Glossary On
Versions: 1 2 3 4 5 6 7 8 9 10 11 12 13 14
000
FTUS42 KMLB 182329
TAFSUA
TAF
KSUA 182329Z 1900/1924 34006KT P6SM SCT020
     FM190400 31004KT P6SM FEW025 BKN250
     FM191600 06007KT P6SM BKN030=

USA.gov is the U.S. government's official web portal to all federal, state and local government web resources and services.